Time;durP1;ratioP1;P1;durP2;ratioP2;P2;SDS_P1;SDS_P2;PMS_P1;PMS_P2;Temp;Humidity;BMP_temperature;BMP_pressure;BME280_temperature;BME280_humidity;BME280_pressure;Samples;Min_cycle;Max_cycle;Signal;HPM_P1;HPM_P2
2021/06/23 00:02:20;;;;;;;335.85;287.88;;;;;;;21.71;72.51;98660.62;2249175;79;20996;-79
2021/06/23 00:05:21;;;;;;;34.27;22.95;;;;;;;22.09;72.74;98657.91;2249404;79;21377;-78
2021/06/23 00:08:22;;;;;;;20.97;18.77;;;;;;;22.40;71.56;98662.92;2249291;79;21407;-79
2021/06/23 00:11:23;;;;;;;24.23;19.37;;;;;;;21.98;70.68;98675.15;2249315;79;20905;-78
2021/06/23 00:14:24;;;;;;;25.40;21.12;;;;;;;21.50;71.55;98681.27;2249079;79;20960;-78
2021/06/23 00:17:25;;;;;;;23.12;20.80;;;;;;;21.22;72.93;98683.53;2249125;79;20996;-78
2021/06/23 00:20:26;;;;;;;25.97;20.15;;;;;;;20.93;74.22;98683.59;2249261;79;21047;-78
2021/06/23 00:23:27;;;;;;;25.05;20.40;;;;;;;20.72;74.70;98678.95;2249497;79;20928;-78
2021/06/23 00:26:28;;;;;;;21.90;19.75;;;;;;;20.59;75.03;98682.44;2249896;79;20983;-79
2021/06/23 00:29:30;;;;;;;24.15;21.55;;;;;;;20.57;75.87;98680.30;2249383;79;21032;-78
2021/06/23 00:32:31;;;;;;;26.50;21.10;;;;;;;20.53;75.77;98683.50;2249236;79;21001;-78
2021/06/23 00:35:32;;;;;;;24.52;21.93;;;;;;;20.50;76.03;98686.70;2249008;79;21012;-79
2021/06/23 00:38:33;;;;;;;23.35;20.85;;;;;;;20.34;76.55;98696.41;2249243;79;20960;-78
2021/06/23 00:41:34;;;;;;;27.93;21.77;;;;;;;20.29;76.75;98690.37;2248855;79;21371;-78
2021/06/23 00:44:35;;;;;;;27.77;24.75;;;;;;;20.29;76.75;98690.37;2249360;79;21379;-79
2021/06/23 00:47:36;;;;;;;32.05;24.32;;;;;;;20.22;77.46;98695.45;2249271;79;20916;-79
2021/06/23 00:50:38;;;;;;;33.60;26.37;;;;;;;20.08;77.78;98692.33;2249373;79;20968;-78
2021/06/23 00:53:40;;;;;;;35.45;30.27;;;;;;;20.09;78.16;98695.85;2227006;79;21002;-79
2021/06/23 00:56:41;;;;;;;31.27;25.97;;;;;;;20.06;78.39;98699.45;2249424;79;20995;-79
2021/06/23 00:59:42;;;;;;;29.07;26.17;;;;;;;20.39;78.62;98700.28;2273817;77;21001;-79
2021/06/23 01:02:46;;;;;;;31.37;27.60;;;;;;;20.43;77.45;98707.69;2281562;78;21193;-79
2021/06/23 01:05:47;;;;;;;34.00;29.57;;;;;;;20.23;77.47;98713.09;2281459;78;20902;-78
2021/06/23 01:08:49;;;;;;;35.90;30.60;;;;;;;20.21;78.23;98712.27;2280911;78;20978;-79
2021/06/23 01:11:50;;;;;;;43.05;32.88;;;;;;;20.15;78.33;98708.47;2281542;78;21326;-79
2021/06/23 01:14:51;;;;;;;49.48;40.45;;;;;;;20.13;79.15;98716.92;2281163;78;21014;-79
2021/06/23 01:17:52;;;;;;;39.55;35.08;;;;;;;20.04;79.20;98720.70;2281261;78;21258;-78
2021/06/23 01:20:53;;;;;;;41.92;36.20;;;;;;;20.00;80.26;98712.87;2281242;78;20985;-78
2021/06/23 01:23:54;;;;;;;44.98;35.90;;;;;;;19.97;80.39;98725.76;2281351;78;20981;-79
2021/06/23 01:26:55;;;;;;;49.20;35.75;;;;;;;19.97;80.62;98722.24;2281537;78;20938;-78
2021/06/23 01:29:55;;;;;;;42.53;36.73;;;;;;;19.99;80.52;98713.80;2280995;78;21378;-77
2021/06/23 01:32:57;;;;;;;47.50;37.00;;;;;;;19.99;81.71;98715.12;2280918;78;20911;-78
2021/06/23 01:35:58;;;;;;;48.28;38.30;;;;;;;19.99;80.78;98709.82;2281121;78;21022;-78
2021/06/23 01:38:59;;;;;;;46.83;38.78;;;;;;;19.99;80.97;98719.09;2280795;78;20934;-78
2021/06/23 01:42:00;;;;;;;48.15;37.28;;;;;;;20.00;81.05;98724.34;2280615;78;20918;-79
2021/06/23 01:45:01;;;;;;;57.33;42.70;;;;;;;20.02;80.66;98725.63;2280946;78;20914;-77
2021/06/23 01:48:02;;;;;;;58.95;42.10;;;;;;;20.04;81.17;98726.00;2280938;78;20969;-77
2021/06/23 01:51:03;;;;;;;48.45;38.02;;;;;;;20.07;81.73;98740.94;2280928;78;20894;-79
2021/06/23 01:54:04;;;;;;;50.35;39.20;;;;;;;20.12;80.83;98744.33;2280886;78;20942;-79
2021/06/23 01:57:05;;;;;;;48.85;38.53;;;;;;;20.16;80.90;98748.63;2281249;78;21041;-78
2021/06/23 02:00:06;;;;;;;48.65;36.95;;;;;;;20.20;81.33;98753.39;2288626;77;21017;-78
2021/06/23 02:03:06;;;;;;;46.37;35.23;;;;;;;20.25;81.76;98747.05;2290728;78;20904;-78
2021/06/23 02:06:08;;;;;;;39.73;32.58;;;;;;;20.30;81.41;98750.43;2290673;78;20975;-79
2021/06/23 02:09:09;;;;;;;41.40;34.58;;;;;;;20.33;81.57;98748.15;2290646;78;20951;-79
2021/06/23 02:12:10;;;;;;;38.83;33.67;;;;;;;20.33;81.34;98746.82;2290636;78;21408;-78
2021/06/23 02:15:11;;;;;;;44.38;33.63;;;;;;;20.32;81.21;98747.73;2290702;78;21027;-78
2021/06/23 02:18:12;;;;;;;39.60;32.10;;;;;;;20.29;81.14;98753.99;2290601;78;21000;-76
2021/06/23 02:21:13;;;;;;;35.80;31.40;;;;;;;20.31;81.21;98759.25;2290655;78;20913;-78
2021/06/23 02:24:14;;;;;;;35.10;31.37;;;;;;;20.34;81.30;98761.81;2290612;78;20924;-78
2021/06/23 02:27:15;;;;;;;36.95;31.62;;;;;;;20.33;81.47;98762.27;2290596;78;21419;-78
2021/06/23 02:30:16;;;;;;;41.88;30.97;;;;;;;20.38;80.94;98778.50;2290167;78;21034;-77
2021/06/23 02:33:17;;;;;;;39.13;29.42;;;;;;;20.40;80.92;98780.69;2290615;78;20984;-79
2021/06/23 02:36:18;;;;;;;32.40;29.00;;;;;;;20.44;81.32;98778.36;2290601;78;21347;-78
2021/06/23 02:39:19;;;;;;;31.30;26.33;;;;;;;20.45;80.68;98774.34;2290591;78;21370;-77
2021/06/23 02:42:20;;;;;;;29.87;26.25;;;;;;;20.45;80.69;98776.12;2290994;78;21319;-78
2021/06/23 02:45:21;;;;;;;30.90;26.10;;;;;;;20.44;80.80;98787.64;2290379;78;20941;-78
2021/06/23 02:48:22;;;;;;;35.63;26.17;;;;;;;20.44;80.35;98791.61;2290649;78;21320;-77
2021/06/23 02:51:23;;;;;;;29.50;23.40;;;;;;;20.45;80.36;98790.24;2290651;78;21016;-77
2021/06/23 02:54:24;;;;;;;27.13;24.12;;;;;;;20.47;80.07;98792.85;2290579;78;21319;-78
2021/06/23 02:57:25;;;;;;;29.27;24.65;;;;;;;20.51;80.09;98805.11;2290572;78;21012;-78
2021/06/23 03:03:30;;;;;;;24.77;22.27;;;;;;;20.52;80.04;98803.73;2259979;78;21290;-78
2021/06/23 03:06:31;;;;;;;31.15;24.95;;;;;;;20.50;79.63;98807.34;2280775;78;21330;-78
2021/06/23 03:09:32;;;;;;;31.23;26.55;;;;;;;20.51;80.28;98811.73;2280829;78;20981;-78
2021/06/23 03:12:34;;;;;;;31.05;26.12;;;;;;;20.52;80.22;98815.67;2280861;78;21318;-79
2021/06/23 03:15:35;;;;;;;30.68;26.50;;;;;;;20.58;80.32;98817.27;2280386;78;21350;-79
2021/06/23 03:18:36;;;;;;;29.67;25.90;;;;;;;20.61;79.81;98819.37;2280747;78;21314;-78
2021/06/23 03:21:37;;;;;;;29.82;26.65;;;;;;;20.68;79.36;98816.09;2280684;78;20947;-78
2021/06/23 03:24:38;;;;;;;35.40;27.77;;;;;;;20.74;79.04;98811.93;2280715;78;21357;-78
2021/06/23 03:27:39;;;;;;;33.05;26.93;;;;;;;20.82;79.01;98813.06;2280643;78;20942;-77
2021/06/23 03:30:40;;;;;;;35.60;26.62;;;;;;;20.88;78.49;98812.42;2280746;78;21358;-76
2021/06/23 03:33:41;;;;;;;41.13;29.00;;;;;;;20.98;78.11;98811.23;2280628;78;20903;-78
2021/06/23 03:36:42;;;;;;;36.73;28.70;;;;;;;21.06;77.84;98814.97;2280825;78;20990;-78
2021/06/23 03:39:43;;;;;;;39.38;30.57;;;;;;;21.11;77.62;98812.17;2280932;78;20922;-75
2021/06/23 03:42:44;;;;;;;37.38;30.23;;;;;;;21.19;77.35;98810.14;2280956;78;20998;-74
2021/06/23 03:45:44;;;;;;;39.70;30.92;;;;;;;21.26;76.93;98816.57;2280874;78;20984;-75
2021/06/23 03:48:45;;;;;;;41.13;33.40;;;;;;;21.36;76.65;98818.47;2280893;78;20911;-75
2021/06/23 03:51:46;;;;;;;38.20;30.30;;;;;;;21.44;76.23;98823.08;2280827;78;20942;-74
2021/06/23 03:54:47;;;;;;;50.03;32.15;;;;;;;21.53;76.02;98828.09;2280952;78;20934;-74
2021/06/23 03:57:49;;;;;;;38.17;31.40;;;;;;;21.57;75.78;98831.06;2280755;78;20954;-74
2021/06/23 04:00:49;;;;;;;39.27;30.62;;;;;;;21.64;75.68;98835.70;2251510;78;21039;-74
2021/06/23 04:03:51;;;;;;;40.83;31.05;;;;;;;21.78;75.27;98836.61;2248894;79;20904;-74
2021/06/23 04:06:52;;;;;;;35.15;29.60;;;;;;;21.90;74.99;98828.22;2248606;79;20983;-74
2021/06/23 04:09:54;;;;;;;36.53;29.30;;;;;;;22.03;74.50;98829.58;2248706;79;21284;-74
2021/06/23 04:12:56;;;;;;;33.93;27.77;;;;;;;22.10;74.31;98837.74;2248441;79;20944;-74
2021/06/23 04:15:57;;;;;;;34.92;27.80;;;;;;;22.24;73.99;98849.22;2248730;79;20987;-73
2021/06/23 04:18:59;;;;;;;35.63;27.80;;;;;;;22.37;73.70;98846.99;2248224;79;21330;-74
2021/06/23 04:22:00;;;;;;;234.32;46.45;;;;;;;22.47;73.33;98845.73;2248559;79;21031;-74
2021/06/23 04:25:01;;;;;;;37.55;27.82;;;;;;;22.62;72.96;98851.86;2248458;79;20951;-74
2021/06/23 04:28:02;;;;;;;32.90;27.93;;;;;;;22.66;72.54;98860.60;2248357;79;20913;-74
2021/06/23 04:31:03;;;;;;;32.53;28.20;;;;;;;22.73;72.56;98860.31;2248377;79;21032;-74
2021/06/23 04:34:04;;;;;;;37.40;30.17;;;;;;;22.81;72.13;98863.59;2248466;79;20988;-74
2021/06/23 04:37:05;;;;;;;33.70;29.02;;;;;;;22.94;71.83;98869.78;2248563;79;20967;-74
2021/06/23 04:40:06;;;;;;;39.45;29.15;;;;;;;22.82;71.78;98868.45;2248440;79;20940;-75
2021/06/23 04:46:11;;;;;;;32.98;29.55;;;;;;;22.74;72.16;98865.17;2221431;79;20931;-74
2021/06/23 04:49:13;;;;;;;40.75;31.57;;;;;;;;;;2248321;79;20976;-77
2021/06/23 04:52:14;;;;;;;48.17;37.65;;;;;;;22.55;72.39;98870.30;2248409;79;21006;-77
2021/06/23 04:55:16;;;;;;;43.30;37.40;;;;;;;22.47;72.83;98872.34;2248763;79;21011;-76
2021/06/23 04:58:17;;;;;;;48.23;37.75;;;;;;;22.31;73.10;98879.13;2248452;79;21004;-78
2021/06/23 05:01:18;;;;;;;46.75;39.98;;;;;;;22.18;73.86;98884.86;2279540;77;20985;-77
2021/06/23 05:04:20;;;;;;;45.03;40.08;;;;;;;22.16;73.75;98890.70;2280882;78;20985;-76
2021/06/23 05:07:21;;;;;;;56.65;43.05;;;;;;;22.10;73.91;98895.35;2280823;78;20926;-77
2021/06/23 05:10:22;;;;;;;50.33;41.60;;;;;;;22.13;73.89;98900.56;2281841;78;20980;-77
2021/06/23 05:13:26;;;;;;;52.23;42.93;;;;;;;22.09;73.86;98902.45;2281383;78;20934;-78
2021/06/23 05:16:27;;;;;;;106.72;43.00;;;;;;;21.96;74.18;98913.06;2281347;78;20981;-77
2021/06/23 05:19:32;;;;;;;49.03;41.00;;;;;;;21.84;74.20;98911.67;2280925;78;20966;-77
2021/06/23 05:22:33;;;;;;;53.50;42.10;;;;;;;21.90;74.30;98915.45;2281263;78;21349;-77
2021/06/23 05:25:36;;;;;;;48.55;41.70;;;;;;;21.81;74.45;98914.89;2281484;78;21358;-78
2021/06/23 05:28:37;;;;;;;50.03;41.20;;;;;;;21.83;74.40;98906.41;2281726;78;20930;-79
2021/06/23 05:31:38;;;;;;;44.75;39.83;;;;;;;21.96;73.99;98921.03;2281653;78;20973;-79
2021/06/23 05:34:39;;;;;;;47.17;39.53;;;;;;;22.10;73.36;98908.64;2281386;78;21310;-78
2021/06/23 05:37:40;;;;;;;44.33;39.18;;;;;;;22.18;73.20;98916.77;2280725;78;20986;-78
2021/06/23 05:40:41;;;;;;;41.02;36.68;;;;;;;22.19;72.87;98912.31;2280924;78;20977;-77
2021/06/23 05:43:44;;;;;;;42.83;38.05;;;;;;;22.20;72.60;98925.56;2280895;78;20970;-77
2021/06/23 05:46:45;;;;;;;80.40;38.70;;;;;;;22.30;72.43;98927.91;2280172;78;21302;-77
2021/06/23 05:52:51;;;;;;;39.78;32.40;;;;;;;22.50;71.51;98922.77;2260805;78;21056;-80
2021/06/23 05:55:55;;;;;;;43.25;31.17;;;;;;;22.55;71.10;98931.02;2282371;78;21452;-82
2021/06/23 05:58:55;;;;;;;35.05;31.25;;;;;;;22.56;70.78;98931.43;2282754;77;20941;-81
2021/06/23 06:01:57;;;;;;;36.40;30.45;;;;;;;22.65;69.99;98938.22;2292056;78;20944;-81
2021/06/23 06:04:57;;;;;;;36.17;29.15;;;;;;;22.63;70.12;98942.72;2291317;78;20978;-81
2021/06/23 06:07:59;;;;;;;33.73;27.42;;;;;;;22.64;69.68;98949.78;2291100;78;20940;-81
2021/06/23 06:11:01;;;;;;;32.78;29.25;;;;;;;22.61;69.49;98956.54;2291927;78;20963;-81
2021/06/23 06:14:02;;;;;;;33.90;30.08;;;;;;;22.52;69.46;98960.81;2291119;78;20955;-80
2021/06/23 06:17:03;;;;;;;40.43;32.90;;;;;;;22.62;69.11;98959.61;2291601;78;21048;-80
2021/06/23 06:20:06;;;;;;;36.40;30.80;;;;;;;22.68;68.75;98967.38;2291064;78;21304;-81
2021/06/23 06:23:08;;;;;;;30.32;26.97;;;;;;;22.67;68.69;98973.63;2291563;78;20944;-84
2021/06/23 06:26:10;;;;;;;29.57;26.40;;;;;;;22.85;68.39;98970.34;2291340;78;20962;-83
2021/06/23 06:29:11;;;;;;;33.42;25.72;;;;;;;22.95;67.66;98970.01;2291642;78;21055;-81
2021/06/23 06:32:12;;;;;;;28.77;22.75;;;;;;;23.03;67.68;98970.59;2291748;78;20967;-82
2021/06/23 06:35:13;;;;;;;25.30;21.52;;;;;;;23.15;67.25;98980.34;2291229;78;21363;-79
2021/06/23 06:38:15;;;;;;;27.65;23.90;;;;;;;23.25;67.05;98968.88;2290751;78;21036;-80
2021/06/23 06:41:16;;;;;;;33.48;24.47;;;;;;;23.26;66.72;98977.27;2291276;78;20956;-81
2021/06/23 06:44:21;;;;;;;27.37;23.32;;;;;;;23.21;66.76;98976.58;2291089;78;21020;-81
2021/06/23 06:47:22;;;;;;;26.62;23.98;;;;;;;23.24;66.83;98979.13;2291141;78;21332;-81
2021/06/23 06:50:24;;;;;;;27.22;21.85;;;;;;;23.22;66.90;98982.30;2292053;78;20924;-80
2021/06/23 06:53:26;;;;;;;26.07;23.15;;;;;;;23.17;67.21;98989.59;2291978;78;20920;-79
2021/06/23 06:56:29;;;;;;;35.55;24.85;;;;;;;23.00;67.59;98987.55;2269495;78;21258;-80
2021/06/23 06:59:30;;;;;;;31.37;27.95;;;;;;;22.95;67.68;98988.64;2292012;77;21409;-81
2021/06/23 07:02:33;;;;;;;27.98;24.82;;;;;;;23.03;67.18;98988.77;2292343;78;20972;-78
2021/06/23 07:08:44;;;;;;;42.13;23.55;;;;;;;23.16;66.73;98991.85;2261003;78;20994;-78
2021/06/23 07:11:47;;;;;;;55.35;23.20;;;;;;;23.55;66.67;98995.34;2292754;78;20893;-79
2021/06/23 07:24:00;;;;;;;61.65;24.77;;;;;;;23.69;64.54;99006.34;2259840;78;21214;-78
2021/06/23 07:27:01;;;;;;;28.65;23.75;;;;;;;23.87;64.71;99002.95;2291613;77;21373;-79
2021/06/23 07:30:03;;;;;;;26.77;22.73;;;;;;;24.02;63.90;99002.81;2291129;78;20997;-78
2021/06/23 07:33:07;;;;;;;27.90;25.02;;;;;;;24.15;63.33;99000.92;2292292;78;21014;-79
2021/06/23 07:39:27;;;;;;;29.42;24.43;;;;;;;24.45;63.56;99000.65;2291711;78;20959;-79
2021/06/23 07:42:28;;;;;;;27.55;22.25;;;;;;;24.75;62.53;99003.34;2258919;78;20980;-79
2021/06/23 07:45:29;;;;;;;28.42;24.65;;;;;;;25.11;62.42;98996.02;2291928;78;20917;-79
2021/06/23 07:48:33;;;;;;;30.15;27.02;;;;;;;25.22;61.25;99003.12;2292314;78;20970;-80
2021/06/23 08:11:18;;;;;;;27.35;24.50;;;;;;;24.55;61.57;99016.67;2261083;78;21381;-78
2021/06/23 08:14:18;;;;;;;28.62;25.40;;;;;;;24.50;61.87;99012.00;2281248;78;20993;-79
2021/06/23 08:17:19;;;;;;;33.08;26.80;;;;;;;24.43;61.95;99017.19;2281959;78;21049;-79
2021/06/23 08:20:21;;;;;;;28.07;25.15;;;;;;;24.47;61.83;99018.80;2281561;78;21025;-78
2021/06/23 08:23:22;;;;;;;30.45;23.07;;;;;;;24.72;61.55;99011.95;2281963;78;21385;-79
2021/06/23 08:26:23;;;;;;;25.35;22.17;;;;;;;25.18;61.12;99010.87;2281267;78;21424;-78
2021/06/23 08:29:24;;;;;;;28.05;23.00;;;;;;;25.20;60.27;99015.67;2279424;78;20938;-78
2021/06/23 08:32:25;;;;;;;25.72;23.25;;;;;;;25.06;60.53;99028.74;2274511;78;21001;-80
2021/06/23 08:35:26;;;;;;;23.90;21.40;;;;;;;25.17;60.56;99019.81;2281923;78;20962;-83
2021/06/23 08:38:28;;;;;;;24.98;22.32;;;;;;;25.15;60.25;99028.84;2282215;78;21418;-79
2021/06/23 08:41:29;;;;;;;24.32;21.85;;;;;;;25.18;59.69;99028.70;2282206;78;20961;-79
2021/06/23 08:44:30;;;;;;;28.05;21.00;;;;;;;25.17;59.85;99038.52;2281563;78;21052;-80
2021/06/23 08:47:32;;;;;;;21.45;19.32;;;;;;;25.48;59.98;99038.47;2282447;78;20950;-79
2021/06/23 08:50:33;;;;;;;24.77;22.13;;;;;;;25.66;59.29;99030.51;2282276;78;20942;-80
2021/06/23 08:53:34;;;;;;;24.63;22.22;;;;;;;25.50;59.19;99037.94;2281760;78;20929;-79
2021/06/23 08:56:35;;;;;;;24.50;22.07;;;;;;;25.29;59.38;99035.30;2281552;78;21409;-78
2021/06/23 08:59:37;;;;;;;29.98;22.93;;;;;;;25.29;59.68;99044.65;2281175;77;21400;-78
2021/06/23 09:02:38;;;;;;;29.50;23.65;;;;;;;25.39;59.49;99047.31;2291719;78;20956;-78
2021/06/23 09:05:39;;;;;;;28.70;23.25;;;;;;;25.42;59.43;99046.77;2291752;78;20971;-78
2021/06/23 09:08:41;;;;;;;26.90;24.00;;;;;;;25.60;59.30;99056.16;2291542;78;21762;-77
2021/06/23 09:11:42;;;;;;;28.42;25.27;;;;;;;25.68;58.71;99059.38;2291561;78;20920;-78
2021/06/23 09:14:43;;;;;;;26.65;23.85;;;;;;;25.29;59.04;99067.36;2290841;78;20983;-78
2021/06/23 09:17:45;;;;;;;32.10;28.95;;;;;;;25.10;59.84;99067.73;2291672;78;20960;-79
2021/06/23 09:20:46;;;;;;;39.48;26.70;;;;;;;25.05;59.94;99076.41;2291727;78;21616;-79
2021/06/23 09:23:50;;;;;;;30.52;26.37;;;;;;;25.11;60.04;99069.94;2291904;78;20912;-81
2021/06/23 09:26:51;;;;;;;27.77;25.05;;;;;;;25.14;59.99;99073.34;2292337;78;20936;-79
2021/06/23 09:29:52;;;;;;;27.40;24.27;;;;;;;24.92;60.42;99072.50;2291555;78;21035;-79
2021/06/23 09:32:54;;;;;;;27.67;24.85;;;;;;;24.83;60.67;99085.78;2292073;78;20948;-80
2021/06/23 09:35:55;;;;;;;29.92;26.82;;;;;;;24.77;61.26;99084.70;2292152;78;21026;-79
2021/06/23 09:38:56;;;;;;;30.60;25.45;;;;;;;24.71;60.72;99088.49;2292220;78;20971;-80
2021/06/23 09:41:57;;;;;;;29.12;26.33;;;;;;;24.71;61.06;99088.95;2292185;78;20920;-80
2021/06/23 09:44:58;;;;;;;28.35;24.70;;;;;;;24.77;60.99;99087.37;2291931;78;21073;-79
2021/06/23 09:48:00;;;;;;;25.45;22.73;;;;;;;24.86;60.34;99091.45;2291780;78;20965;-79
2021/06/23 09:51:01;;;;;;;28.00;24.02;;;;;;;25.05;60.26;99095.11;2291451;78;21341;-79
2021/06/23 09:54:02;;;;;;;22.95;19.05;;;;;;;25.23;59.68;99098.35;2291960;78;21023;-79
2021/06/23 09:57:03;;;;;;;25.72;22.40;;;;;;;25.54;59.41;99083.62;2290901;78;21625;-78
2021/06/23 10:00:04;;;;;;;28.92;26.05;;;;;;;25.70;58.76;99101.61;2289857;78;21074;-78
2021/06/23 10:03:05;;;;;;;28.35;23.27;;;;;;;26.09;57.97;99099.86;2281630;78;21006;-78
2021/06/23 10:06:06;;;;;;;32.50;25.05;;;;;;;26.67;57.19;99095.27;2281580;78;21285;-81
2021/06/23 10:09:08;;;;;;;26.12;21.70;;;;;;;26.64;55.20;99090.93;2281346;78;21033;-79
2021/06/23 10:12:10;;;;;;;26.93;23.00;;;;;;;26.91;55.76;99095.41;2281916;78;20958;-80
2021/06/23 10:15:12;;;;;;;26.40;23.60;;;;;;;26.90;55.46;99103.05;2281559;78;21388;-80
2021/06/23 10:18:13;;;;;;;28.95;25.85;;;;;;;26.77;54.90;99111.73;2281610;78;20969;-80
2021/06/23 10:21:15;;;;;;;33.95;24.18;;;;;;;26.50;54.78;99104.13;2281078;78;20937;-80
2021/06/23 10:24:16;;;;;;;26.00;23.27;;;;;;;26.51;55.29;99103.66;2281584;78;21009;-82
2021/06/23 10:27:18;;;;;;;25.17;22.48;;;;;;;26.52;55.60;99103.58;2281749;78;20982;-81
2021/06/23 10:30:19;;;;;;;31.87;23.95;;;;;;;26.36;55.95;99107.94;2281652;78;21002;-81
2021/06/23 10:33:23;;;;;;;26.80;21.97;;;;;;;26.22;55.78;99110.38;2282012;78;20950;-80
2021/06/23 10:36:24;;;;;;;25.20;22.52;;;;;;;26.54;55.71;99103.50;2281830;78;20954;-81
2021/06/23 10:39:26;;;;;;;26.95;22.80;;;;;;;26.66;54.71;99101.56;2281823;78;21064;-80
2021/06/23 10:42:27;;;;;;;25.92;23.12;;;;;;;26.56;54.87;99097.13;2281527;78;21014;-81
2021/06/23 10:45:28;;;;;;;38.67;23.60;;;;;;;26.62;55.07;99096.83;2281631;78;21064;-80
2021/06/23 10:48:29;;;;;;;24.95;22.50;;;;;;;26.48;55.61;99091.76;2281860;78;21413;-81
2021/06/23 10:51:30;;;;;;;25.90;23.22;;;;;;;26.37;55.96;99097.63;2281965;78;20997;-79
2021/06/23 10:54:31;;;;;;;27.22;22.98;;;;;;;26.15;55.91;99098.23;2281412;78;20961;-79
2021/06/23 10:57:36;;;;;;;26.70;22.58;;;;;;;26.23;55.66;99093.38;2280574;78;22278;-80
2021/06/23 11:00:40;;;;;;;27.13;24.15;;;;;;;26.44;55.69;99100.41;2274353;78;21023;-81
2021/06/23 11:03:41;;;;;;;27.00;22.95;;;;;;;26.59;55.24;99098.79;2249423;79;20979;-80
2021/06/23 11:06:42;;;;;;;26.12;23.25;;;;;;;26.75;55.22;99095.75;2249413;79;21390;-80
2021/06/23 11:09:43;;;;;;;31.10;26.82;;;;;;;26.94;55.02;99093.05;2249166;79;20956;-80
2021/06/23 11:12:45;;;;;;;32.03;28.15;;;;;;;27.14;53.83;99097.41;2249088;79;20928;-79
2021/06/23 11:15:49;;;;;;;31.25;27.67;;;;;;;26.84;53.71;99091.73;2249118;79;21003;-80
2021/06/23 11:18:48;;;;;;;28.25;25.27;;;;;;;26.82;54.05;99089.14;2248644;79;20974;-79
2021/06/23 11:21:50;;;;;;;29.18;26.27;;;;;;;26.84;54.23;99095.76;2249247;79;21001;-81
2021/06/23 11:24:51;;;;;;;32.70;25.88;;;;;;;26.76;54.18;99101.50;2249008;79;21051;-79
2021/06/23 11:27:52;;;;;;;31.33;26.65;;;;;;;26.57;54.88;99094.85;2248623;79;21031;-78
2021/06/23 11:30:54;;;;;;;30.77;27.20;;;;;;;26.49;55.12;99091.69;2248323;79;21099;-78
2021/06/23 11:37:00;;;;;;;37.93;28.80;;;;;;;26.49;55.67;99086.33;2221834;79;21340;-80
2021/06/23 11:40:01;;;;;;;30.88;27.27;;;;;;;26.78;55.18;99080.87;2249836;79;21355;-80
2021/06/23 11:43:03;;;;;;;46.30;28.38;;;;;;;26.72;54.75;99073.14;2249557;79;21009;-78
2021/06/23 11:46:04;;;;;;;32.65;28.12;;;;;;;26.79;54.43;99079.05;2249786;79;20928;-80
2021/06/23 11:49:06;;;;;;;30.72;27.73;;;;;;;26.83;54.24;99068.58;2249515;79;20982;-80
2021/06/23 11:52:07;;;;;;;34.78;31.17;;;;;;;27.04;53.87;99072.91;2249701;79;21424;-82
2021/06/23 11:55:08;;;;;;;31.23;28.10;;;;;;;27.04;53.49;99066.20;2249237;79;20955;-79
2021/06/23 11:58:09;;;;;;;76.05;32.63;;;;;;;27.22;53.48;99074.62;2249291;79;21391;-81
2021/06/23 12:01:10;;;;;;;57.60;30.90;;;;;;;27.43;53.34;99065.06;2259634;77;21020;-81
2021/06/23 12:04:13;;;;;;;31.25;27.73;;;;;;;27.66;52.67;99062.52;2281767;78;21374;-81
2021/06/23 12:07:14;;;;;;;38.85;32.30;;;;;;;27.78;52.44;99060.54;2281189;78;20974;-80
2021/06/23 12:10:15;;;;;;;41.23;31.40;;;;;;;27.77;52.03;99058.81;2281801;78;21029;-80
2021/06/23 12:13:17;;;;;;;37.17;33.45;;;;;;;27.73;51.63;99062.09;2281946;78;21009;-80
2021/06/23 12:16:20;;;;;;;37.17;33.33;;;;;;;27.48;52.28;99054.48;2281929;78;20965;-79
2021/06/23 12:19:21;;;;;;;36.88;32.95;;;;;;;27.66;52.05;99059.36;2282207;78;21002;-82
2021/06/23 12:22:26;;;;;;;36.00;32.03;;;;;;;27.66;51.87;99062.05;2282031;78;20965;-79
2021/06/23 12:25:25;;;;;;;34.78;31.30;;;;;;;27.55;52.13;99058.56;2282265;78;21030;-79
2021/06/23 12:28:26;;;;;;;34.75;30.97;;;;;;;27.64;52.05;99057.23;2281572;78;21029;-80
2021/06/23 12:31:27;;;;;;;32.95;29.82;;;;;;;27.82;52.12;99059.42;2282105;78;21008;-80
2021/06/23 12:34:28;;;;;;;33.30;29.87;;;;;;;27.80;51.15;99060.84;2281532;78;21021;-81
2021/06/23 12:37:29;;;;;;;31.52;28.38;;;;;;;27.76;51.26;99061.97;2281750;78;21038;-78
2021/06/23 12:40:31;;;;;;;36.33;27.82;;;;;;;27.87;51.81;99051.52;2281123;78;21393;-78
2021/06/23 12:43:32;;;;;;;31.73;28.47;;;;;;;27.76;51.80;99049.89;2281418;78;20938;-80
2021/06/23 12:46:33;;;;;;;31.37;28.05;;;;;;;27.62;52.40;99047.07;2281895;78;21421;-80
2021/06/23 12:49:34;;;;;;;30.27;27.17;;;;;;;27.75;51.61;99045.48;2281983;78;21021;-79
2021/06/23 12:52:35;;;;;;;30.43;27.30;;;;;;;28.22;51.33;99036.59;2281469;78;21007;-79
2021/06/23 12:55:36;;;;;;;36.77;30.52;;;;;;;28.58;50.56;99034.11;2281733;78;21029;-79
2021/06/23 12:58:37;;;;;;;32.10;28.70;;;;;;;28.67;49.28;99036.28;2281479;78;21385;-80
2021/06/23 13:01:38;;;;;;;33.90;30.32;;;;;;;28.71;49.35;99033.80;2286567;77;21073;-80
2021/06/23 13:04:41;;;;;;;29.72;26.70;;;;;;;29.13;49.57;99029.91;2291701;78;21408;-79
2021/06/23 13:07:43;;;;;;;29.98;26.87;;;;;;;29.44;48.60;99030.74;2292306;78;20995;-82
2021/06/23 13:10:45;;;;;;;29.85;26.25;;;;;;;29.52;46.81;99028.95;2292370;78;20940;-80
2021/06/23 13:13:45;;;;;;;30.55;27.48;;;;;;;29.52;46.81;99035.67;2292532;78;21004;-80
2021/06/23 13:16:47;;;;;;;28.12;25.37;;;;;;;29.82;47.77;99030.18;2291763;78;20947;-79
2021/06/23 13:19:48;;;;;;;28.57;25.77;;;;;;;30.06;44.97;99034.88;2291880;78;21019;-79
2021/06/23 13:22:49;;;;;;;28.05;25.08;;;;;;;30.05;45.75;99044.41;2291875;78;20979;-79
2021/06/23 13:25:52;;;;;;;26.37;23.87;;;;;;;29.67;45.99;99042.30;2291975;78;21372;-79
2021/06/23 13:28:53;;;;;;;28.27;25.23;;;;;;;29.64;46.18;99041.63;2291835;78;20979;-80
2021/06/23 13:31:54;;;;;;;28.60;25.77;;;;;;;29.32;46.31;99044.91;2292464;78;20980;-79
2021/06/23 13:34:55;;;;;;;27.10;24.50;;;;;;;29.10;47.27;99040.84;2292016;78;21035;-79
2021/06/23 13:37:56;;;;;;;28.60;25.60;;;;;;;29.28;47.65;99043.38;2291937;78;21023;-79
2021/06/23 13:40:58;;;;;;;26.62;24.05;;;;;;;29.35;46.64;99041.55;2291700;78;21344;-80
2021/06/23 13:43:59;;;;;;;26.77;24.12;;;;;;;29.48;46.97;99041.72;2292025;78;21443;-80
2021/06/23 13:47:00;;;;;;;28.98;26.17;;;;;;;29.90;46.02;99039.97;2291938;78;20987;-79
2021/06/23 13:50:01;;;;;;;28.10;25.30;;;;;;;29.70;45.98;99039.42;2292053;78;20963;-80
2021/06/23 13:53:03;;;;;;;35.73;24.80;;;;;;;29.70;46.17;99044.80;2291362;78;20955;-79
2021/06/23 13:56:04;;;;;;;29.37;25.13;;;;;;;29.63;46.30;99032.70;2291546;78;21035;-79
2021/06/23 13:59:05;;;;;;;32.98;25.72;;;;;;;29.65;46.41;99032.12;2291211;78;20987;-81
2021/06/23 14:02:06;;;;;;;28.15;25.08;;;;;;;30.15;46.91;99035.25;2290222;77;20995;-80
2021/06/23 14:05:07;;;;;;;27.17;24.37;;;;;;;30.94;45.77;99034.02;2290891;78;20948;-81
2021/06/23 14:08:08;;;;;;;26.33;22.77;;;;;;;31.18;43.31;99031.02;2291075;78;21019;-79
2021/06/23 14:11:12;;;;;;;24.90;22.52;;;;;;;31.14;43.57;99035.34;2290979;78;20959;-79
2021/06/23 14:14:13;;;;;;;25.90;23.40;;;;;;;31.25;43.47;99031.48;2292170;78;21012;-82
2021/06/23 14:17:14;;;;;;;28.02;20.37;;;;;;;31.04;43.86;99035.13;2292528;78;20905;-81
2021/06/23 14:20:15;;;;;;;25.60;21.62;;;;;;;31.16;44.08;99024.00;2292970;78;20897;-80
2021/06/23 14:23:16;;;;;;;24.40;22.02;;;;;;;31.09;43.06;99032.97;2293296;78;21003;-80
2021/06/23 14:26:17;;;;;;;27.90;23.27;;;;;;;30.50;44.61;99034.30;2291248;78;20963;-79
2021/06/23 14:29:18;;;;;;;28.32;22.40;;;;;;;30.62;44.46;99037.55;2292535;78;20991;-80
2021/06/23 14:32:19;;;;;;;23.47;21.07;;;;;;;30.36;44.84;99043.30;2293027;78;20991;-80
2021/06/23 14:35:26;;;;;;;23.50;21.40;;;;;;;30.16;45.61;99044.57;2293088;78;21043;-78
2021/06/23 14:38:28;;;;;;;23.87;21.55;;;;;;;30.08;45.66;99046.41;2292698;77;20951;-80
2021/06/23 14:41:29;;;;;;;23.83;21.48;;;;;;;29.95;45.46;99040.55;2293058;78;20940;-81